Time;durP1;ratioP1;P1;durP2;ratioP2;P2;SDS_P1;SDS_P2;PMS_P1;PMS_P2;Temp;Humidity;BMP_temperature;BMP_pressure;BME280_temperature;BME280_humidity;BME280_pressure;Samples;Min_cycle;Max_cycle;Signal;HPM_P1;HPM_P2
2021/03/05 00:01:33;;;;;;;16.38;12.32;;;3.60;99.90;;;;;;4142899;28;20034;-77
2021/03/05 00:03:34;;;;;;;23.58;13.13;;;3.50;99.90;;;;;;4141708;28;20042;-76
2021/03/05 00:05:39;;;;;;;24.02;13.13;;;3.50;99.90;;;;;;4124907;28;20053;-76
2021/03/05 00:07:40;;;;;;;21.02;12.55;;;3.40;99.90;;;;;;4141586;28;20400;-76
2021/03/05 00:09:41;;;;;;;18.63;12.40;;;3.50;99.90;;;;;;4141611;28;20034;-76
2021/03/05 00:11:42;;;;;;;19.90;11.90;;;3.40;99.90;;;;;;4141535;28;20104;-77
2021/03/05 00:13:43;;;;;;;18.98;12.07;;;3.40;99.90;;;;;;4142683;28;20044;-77
2021/03/05 00:15:45;;;;;;;20.27;11.95;;;3.40;99.90;;;;;;4142333;28;20038;-77
2021/03/05 00:17:45;;;;;;;19.10;11.63;;;3.40;99.90;;;;;;4142942;28;20463;-77
2021/03/05 00:19:46;;;;;;;20.75;12.85;;;3.40;99.90;;;;;;4142741;28;20065;-76
2021/03/05 00:21:47;;;;;;;22.88;12.70;;;3.40;99.90;;;;;;4159164;28;20056;-77
2021/03/05 00:23:48;;;;;;;18.60;12.35;;;3.40;99.90;;;;;;4127425;28;20050;-77
2021/03/05 00:25:49;;;;;;;20.58;13.27;;;3.40;99.90;;;;;;4159282;28;20037;-77
2021/03/05 00:27:50;;;;;;;20.50;11.75;;;3.40;99.90;;;;;;4126827;28;20038;-77
2021/03/05 00:29:51;;;;;;;21.13;14.18;;;3.40;99.90;;;;;;4142660;28;20041;-77
2021/03/05 00:31:52;;;;;;;25.60;12.20;;;3.30;99.90;;;;;;4136156;28;20034;-77
2021/03/05 00:33:52;;;;;;;23.13;12.55;;;3.30;99.90;;;;;;4144437;28;20210;-77
2021/03/05 00:35:54;;;;;;;22.30;12.77;;;3.30;99.90;;;;;;4145183;28;20050;-77
2021/03/05 00:37:55;;;;;;;20.08;12.95;;;3.30;99.90;;;;;;4146154;28;20049;-76
2021/03/05 00:39:56;;;;;;;22.00;13.25;;;3.30;99.90;;;;;;4145546;28;20041;-77
2021/03/05 00:41:56;;;;;;;24.58;11.93;;;3.20;99.90;;;;;;4145760;28;20026;-77
2021/03/05 00:43:57;;;;;;;22.90;11.55;;;3.00;99.90;;;;;;4162228;28;20044;-77
2021/03/05 00:45:59;;;;;;;18.38;11.75;;;3.00;99.90;;;;;;4129734;28;20493;-77
2021/03/05 00:48:00;;;;;;;21.35;11.73;;;2.80;99.90;;;;;;4139006;28;20034;-77
2021/03/05 00:50:03;;;;;;;17.73;11.95;;;2.80;99.90;;;;;;4149623;28;20149;-76
2021/03/05 00:52:03;;;;;;;20.15;10.23;;;2.70;99.90;;;;;;4169117;28;20172;-76
2021/03/05 00:54:05;;;;;;;18.15;12.13;;;2.60;99.90;;;;;;4145741;28;20488;-76
2021/03/05 00:56:06;;;;;;;18.48;11.65;;;2.50;99.90;;;;;;4145586;28;20033;-76
2021/03/05 00:58:07;;;;;;;17.05;10.80;;;2.50;99.90;;;;;;4132550;28;20035;-76
2021/03/05 01:00:12;;;;;;;17.50;11.35;;;2.40;99.90;;;;;;4128886;28;20149;-76
2021/03/05 01:02:13;;;;;;;14.10;10.02;;;2.30;99.90;;;;;;4161760;28;20108;-76
2021/03/05 01:04:14;;;;;;;16.98;11.65;;;2.20;99.90;;;;;;4145586;28;20280;-76
2021/03/05 01:06:15;;;;;;;19.50;11.32;;;2.20;99.90;;;;;;4146609;28;20033;-76
2021/03/05 01:08:16;;;;;;;17.77;11.32;;;2.10;99.90;;;;;;4124526;28;20035;-77
2021/03/05 01:10:18;;;;;;;21.83;13.23;;;2.00;99.90;;;;;;4140247;28;20111;-77
2021/03/05 01:12:21;;;;;;;18.35;12.18;;;1.90;99.90;;;;;;4161942;28;20065;-76
2021/03/05 01:14:21;;;;;;;21.05;11.63;;;1.90;99.90;;;;;;4161650;28;20041;-77
2021/03/05 01:16:22;;;;;;;19.17;11.02;;;1.80;99.90;;;;;;4145400;28;20088;-76
2021/03/05 01:18:23;;;;;;;16.70;11.55;;;1.80;99.90;;;;;;4145217;28;20124;-76
2021/03/05 01:20:26;;;;;;;22.50;13.43;;;1.70;99.90;;;;;;4145354;28;20038;-76
2021/03/05 01:22:27;;;;;;;22.85;12.65;;;1.60;99.90;;;;;;4146910;28;20819;-76
2021/03/05 01:24:28;;;;;;;20.48;12.07;;;1.50;99.90;;;;;;4134863;28;20042;-76
2021/03/05 01:26:28;;;;;;;25.20;12.27;;;1.50;99.90;;;;;;4143290;28;20041;-77
2021/03/05 01:28:29;;;;;;;18.35;13.00;;;1.60;99.90;;;;;;4145907;28;20041;-77
2021/03/05 01:30:30;;;;;;;27.08;15.25;;;1.60;99.90;;;;;;4143647;28;20076;-77
2021/03/05 01:32:30;;;;;;;22.33;14.18;;;1.50;99.90;;;;;;4144757;28;20044;-77
2021/03/05 01:34:31;;;;;;;20.52;13.90;;;1.40;99.90;;;;;;4144684;28;20034;-77
2021/03/05 01:36:33;;;;;;;20.85;13.18;;;1.30;99.90;;;;;;4127102;28;20053;-77
2021/03/05 01:38:33;;;;;;;21.85;13.55;;;1.20;99.90;;;;;;4146708;28;20029;-77
2021/03/05 01:40:38;;;;;;;23.02;13.63;;;1.20;99.90;;;;;;4140366;28;20866;-77
2021/03/05 01:42:40;;;;;;;24.90;13.80;;;1.10;99.90;;;;;;4143084;28;20040;-77
2021/03/05 01:44:41;;;;;;;19.15;12.65;;;1.00;99.90;;;;;;4143290;28;20068;-77
2021/03/05 01:46:42;;;;;;;23.67;12.75;;;0.90;99.90;;;;;;4142818;28;20697;-76
2021/03/05 01:48:43;;;;;;;25.33;14.48;;;0.80;99.90;;;;;;4127044;28;20162;-76
2021/03/05 01:50:51;;;;;;;26.90;15.63;;;0.70;99.90;;;;;;4129513;28;20839;-76
2021/03/05 01:53:05;;;;;;;25.88;15.13;;;0.60;99.90;;;;;;4159116;28;20069;-77
2021/03/05 01:55:06;;;;;;;24.50;14.32;;;0.60;99.90;;;;;;4144346;28;20111;-76
2021/03/05 01:57:07;;;;;;;26.05;13.68;;;0.70;99.90;;;;;;4160867;28;20038;-77
2021/03/05 01:59:14;;;;;;;26.80;13.85;;;0.70;99.90;;;;;;4144537;28;20083;-75
2021/03/05 02:01:15;;;;;;;32.45;14.38;;;0.70;99.90;;;;;;4144873;28;20424;-76
2021/03/05 02:03:16;;;;;;;25.95;14.48;;;0.70;99.90;;;;;;4144682;28;20488;-77
2021/03/05 02:05:17;;;;;;;27.23;15.93;;;0.70;99.90;;;;;;4144637;28;20034;-76
2021/03/05 02:07:18;;;;;;;22.35;13.75;;;0.70;99.90;;;;;;4146299;28;20044;-76
2021/03/05 02:09:18;;;;;;;25.50;15.10;;;0.70;99.90;;;;;;4145915;28;20034;-76
2021/03/05 02:11:23;;;;;;;27.35;15.80;;;0.50;99.90;;;;;;4144647;28;20034;-76
2021/03/05 02:13:24;;;;;;;27.75;14.93;;;0.40;99.90;;;;;;4144824;28;20100;-76
2021/03/05 02:15:26;;;;;;;28.17;15.65;;;0.40;99.90;;;;;;4144733;28;20053;-77
2021/03/05 02:17:56;;;;;;;28.70;15.38;;;0.40;99.90;;;;;;4144188;28;20030;-76
2021/03/05 02:20:24;;;;;;;30.77;14.57;;;0.30;99.90;;;;;;4118276;28;20042;-77
2021/03/05 02:23:04;;;;;;;31.83;14.00;;;0.30;99.90;;;;;;4141012;28;20471;-77
2021/03/05 02:25:31;;;;;;;27.88;14.00;;;0.20;99.90;;;;;;4143642;28;20493;-76
2021/03/05 02:27:59;;;;;;;33.65;14.23;;;0.20;99.90;;;;;;4141064;28;20030;-77
2021/03/05 02:30:53;;;;;;;27.58;14.45;;;0.10;99.90;;;;;;4141594;28;20443;-75
2021/03/05 02:33:24;;;;;;;29.77;14.82;;;0.00;99.90;;;;;;4126180;28;20049;-77
2021/03/05 02:35:30;;;;;;;34.80;15.85;;;0.00;99.90;;;;;;4136205;28;20076;-76
2021/03/05 02:37:35;;;;;;;31.65;14.45;;;0.00;99.90;;;;;;4141166;28;20116;-77
2021/03/05 02:39:52;;;;;;;34.10;14.77;;;0.00;99.90;;;;;;4146310;28;20464;-75
2021/03/05 02:41:55;;;;;;;34.35;14.90;;;0.00;99.90;;;;;;4142040;28;20129;-76
2021/03/05 02:43:57;;;;;;;;;;;0.00;99.90;;;;;;4142458;28;20026;-76
2021/03/05 02:46:05;;;;;;;30.05;15.00;;;0.00;99.90;;;;;;4158679;28;19917;-76
2021/03/05 02:48:21;;;;;;;36.58;15.63;;;-0.10;99.90;;;;;;4141831;28;20069;-76
2021/03/05 02:50:25;;;;;;;31.08;14.98;;;-0.20;99.90;;;;;;4141534;28;20046;-77
2021/03/05 02:52:28;;;;;;;32.42;17.05;;;-0.20;99.90;;;;;;4126025;28;20049;-76
2021/03/05 02:54:29;;;;;;;31.85;15.60;;;-0.20;99.90;;;;;;4126057;28;20031;-76
2021/03/05 02:56:33;;;;;;;36.88;16.85;;;-0.20;99.90;;;;;;4151376;28;20091;-76
2021/03/05 02:58:34;;;;;;;32.28;14.90;;;-0.30;99.90;;;;;;4142244;28;20116;-76
2021/03/05 03:00:36;;;;;;;36.30;16.55;;;-0.30;99.90;;;;;;4125612;28;20046;-77
2021/03/05 03:02:38;;;;;;;33.92;14.93;;;-0.30;99.90;;;;;;4154661;28;20043;-76
2021/03/05 03:04:43;;;;;;;39.38;15.63;;;-0.30;99.90;;;;;;4138839;28;20301;-77
2021/03/05 03:06:45;;;;;;;36.20;16.38;;;-0.30;99.90;;;;;;4144613;28;20033;-76
2021/03/05 03:08:47;;;;;;;36.83;16.20;;;-0.30;99.90;;;;;;4160209;28;20040;-76
2021/03/05 03:10:50;;;;;;;41.83;16.63;;;-0.30;99.90;;;;;;4143180;28;20048;-76
2021/03/05 03:12:56;;;;;;;41.55;15.95;;;-0.30;99.90;;;;;;4144128;28;20057;-76
2021/03/05 03:14:57;;;;;;;47.80;17.23;;;-0.30;99.90;;;;;;4143101;28;20088;-76
2021/03/05 03:16:58;;;;;;;43.13;16.65;;;-0.40;99.90;;;;;;4140126;28;20115;-76
2021/03/05 03:19:00;;;;;;;44.20;15.18;;;-0.30;99.90;;;;;;4117154;28;20065;-77
2021/03/05 03:21:01;;;;;;;39.40;15.88;;;-0.30;99.90;;;;;;4134851;28;20125;-77
2021/03/05 03:23:04;;;;;;;42.15;17.58;;;-0.30;99.90;;;;;;4143888;28;20045;-77
2021/03/05 03:25:07;;;;;;;55.35;17.25;;;-0.30;99.90;;;;;;4143585;28;20471;-76
2021/03/05 03:27:08;;;;;;;;;;;-0.80;99.90;;;;;;4142310;28;20038;-76
2021/03/05 03:29:10;;;;;;;40.80;15.00;;;-0.40;99.90;;;;;;4143502;28;19920;-77
2021/03/05 03:31:14;;;;;;;45.90;20.15;;;-0.40;99.90;;;;;;4142971;28;20029;-76
2021/03/05 03:33:17;;;;;;;41.95;15.52;;;-0.50;99.90;;;;;;4127532;28;20117;-77
2021/03/05 03:35:18;;;;;;;38.05;16.13;;;-0.60;99.90;;;;;;4124806;28;20065;-76
2021/03/05 03:37:19;;;;;;;41.45;16.38;;;-0.50;99.90;;;;;;4157352;28;20525;-76
2021/03/05 03:39:23;;;;;;;41.33;18.00;;;-0.60;99.90;;;;;;4143237;28;20076;-76
2021/03/05 03:41:24;;;;;;;39.70;17.75;;;-0.60;99.90;;;;;;4159313;28;20055;-76
2021/03/05 03:43:26;;;;;;;38.55;15.25;;;-0.60;99.90;;;;;;4144494;28;20061;-76
2021/03/05 03:45:31;;;;;;;36.63;14.88;;;-0.50;99.90;;;;;;4124367;28;20031;-76
2021/03/05 03:47:32;;;;;;;38.80;14.98;;;-0.50;99.90;;;;;;4158021;28;20062;-76
2021/03/05 03:49:59;;;;;;;37.47;15.73;;;-0.60;99.90;;;;;;4143930;28;20052;-77
2021/03/05 03:52:27;;;;;;;43.85;16.27;;;-0.60;99.90;;;;;;4143894;28;20038;-75
2021/03/05 03:54:31;;;;;;;40.95;15.77;;;-0.70;99.90;;;;;;4159021;28;20506;-76
2021/03/05 03:56:35;;;;;;;40.15;16.70;;;-0.60;99.90;;;;;;4142397;28;20042;-76
2021/03/05 03:58:37;;;;;;;;;;;-0.70;99.90;;;;;;4144939;28;20044;-76
2021/03/05 04:00:38;;;;;;;46.00;15.75;;;-0.70;99.90;;;;;;4159455;28;19928;-76
2021/03/05 04:02:40;;;;;;;38.58;14.80;;;-0.80;99.90;;;;;;4144154;28;20048;-76
2021/03/05 04:04:41;;;;;;;42.50;14.13;;;-0.80;99.90;;;;;;4142841;28;20046;-76
2021/03/05 04:06:49;;;;;;;43.00;14.45;;;-0.90;99.90;;;;;;4146170;28;20504;-76
2021/03/05 04:08:52;;;;;;;36.92;13.23;;;-1.10;99.90;;;;;;4143937;28;20047;-76
2021/03/05 04:10:53;;;;;;;41.83;15.35;;;-1.20;99.90;;;;;;4162563;28;20558;-76
2021/03/05 04:12:55;;;;;;;35.70;14.23;;;-1.20;99.90;;;;;;4146490;28;20034;-76
2021/03/05 04:14:56;;;;;;;35.00;13.60;;;-1.30;99.90;;;;;;4145782;28;20046;-76
2021/03/05 04:16:57;;;;;;;36.83;14.88;;;-1.30;99.90;;;;;;4127722;28;20033;-76
2021/03/05 04:18:58;;;;;;;39.13;14.43;;;-1.30;99.90;;;;;;4162460;28;20033;-77
2021/03/05 04:21:03;;;;;;;42.42;14.65;;;-1.30;99.90;;;;;;4147127;28;20040;-77
2021/03/05 04:23:06;;;;;;;38.47;14.75;;;-1.30;99.90;;;;;;4161958;28;20053;-76
2021/03/05 04:25:07;;;;;;;40.45;13.88;;;-1.30;99.90;;;;;;4145803;28;20475;-76
2021/03/05 04:27:09;;;;;;;44.33;14.88;;;-1.20;99.90;;;;;;4144676;28;20107;-76
2021/03/05 04:29:11;;;;;;;42.05;15.88;;;-1.10;99.90;;;;;;4145641;28;20345;-76
2021/03/05 04:31:12;;;;;;;42.95;14.65;;;-1.10;99.90;;;;;;4146072;28;20054;-76
2021/03/05 04:33:13;;;;;;;42.90;14.55;;;-1.00;99.90;;;;;;4129521;28;20100;-76
2021/03/05 04:35:14;;;;;;;51.13;17.42;;;-1.00;99.90;;;;;;4146882;28;20207;-76
2021/03/05 04:37:15;;;;;;;48.40;16.33;;;-1.00;99.90;;;;;;4144196;28;20049;-76
2021/03/05 04:39:16;;;;;;;36.08;14.55;;;-1.00;99.90;;;;;;4147341;28;20548;-76
2021/03/05 04:41:17;;;;;;;38.80;15.15;;;-1.00;99.90;;;;;;4146000;28;20026;-76
2021/03/05 04:43:18;;;;;;;47.83;15.23;;;-0.90;99.90;;;;;;4145624;28;20479;-76
2021/03/05 04:45:19;;;;;;;35.78;14.32;;;-0.80;99.90;;;;;;4145097;28;20551;-76
2021/03/05 04:47:20;;;;;;;43.42;15.18;;;-0.80;99.90;;;;;;4145469;28;20041;-76
2021/03/05 04:49:21;;;;;;;45.33;16.45;;;-0.80;99.90;;;;;;4146332;28;20208;-76
2021/03/05 04:51:22;;;;;;;41.42;13.63;;;-1.00;99.90;;;;;;4145715;28;20560;-76
2021/03/05 04:53:23;;;;;;;35.90;15.13;;;-1.00;99.90;;;;;;4145595;28;20508;-76
2021/03/05 04:55:23;;;;;;;43.17;15.43;;;-1.00;99.90;;;;;;4161879;28;20056;-75
2021/03/05 04:57:24;;;;;;;37.05;13.88;;;-1.00;99.90;;;;;;4146653;28;20042;-76
2021/03/05 04:59:25;;;;;;;33.20;13.95;;;-1.00;99.90;;;;;;4167131;28;20076;-74
2021/03/05 05:01:26;;;;;;;36.50;12.77;;;-1.10;99.90;;;;;;4146327;28;20049;-77
2021/03/05 05:03:27;;;;;;;31.65;12.75;;;-1.10;99.90;;;;;;4149584;28;20574;-77
2021/03/05 05:05:28;;;;;;;39.90;14.20;;;-1.10;99.90;;;;;;4145271;28;20041;-77
2021/03/05 05:07:29;;;;;;;37.80;12.82;;;-1.10;99.90;;;;;;4145281;28;20377;-77
2021/03/05 05:09:30;;;;;;;38.08;13.77;;;-1.20;99.90;;;;;;4143551;28;20076;-77
2021/03/05 05:11:30;;;;;;;29.92;12.35;;;-1.20;99.90;;;;;;4144946;28;20370;-74
2021/03/05 05:13:31;;;;;;;30.65;12.65;;;-1.30;99.90;;;;;;4143738;28;20034;-77
2021/03/05 05:15:32;;;;;;;40.42;12.95;;;-1.30;99.90;;;;;;4143011;28;20045;-77
2021/03/05 05:17:33;;;;;;;34.67;12.45;;;-1.30;99.90;;;;;;4144948;28;20116;-75
2021/03/05 05:19:33;;;;;;;29.83;10.98;;;-1.40;99.90;;;;;;4138292;28;20116;-76
2021/03/05 05:21:34;;;;;;;33.47;11.50;;;-1.40;99.90;;;;;;4126342;28;20928;-77
2021/03/05 05:23:35;;;;;;;43.13;12.32;;;-1.40;99.90;;;;;;4144171;28;20045;-76
2021/03/05 05:25:36;;;;;;;30.33;12.13;;;-1.40;99.90;;;;;;4143654;28;20096;-76
2021/03/05 05:27:37;;;;;;;31.63;12.80;;;-1.40;99.90;;;;;;4159993;28;20037;-77
2021/03/05 05:29:38;;;;;;;30.30;11.93;;;-1.50;99.90;;;;;;4144894;28;20164;-77
2021/03/05 05:31:39;;;;;;;33.03;12.68;;;-1.50;99.90;;;;;;4142526;28;20037;-77
2021/03/05 05:33:40;;;;;;;26.75;11.05;;;-1.50;99.90;;;;;;4145841;28;20471;-75
2021/03/05 05:35:40;;;;;;;33.05;12.63;;;-1.60;99.90;;;;;;4160925;28;20563;-75
2021/03/05 05:37:41;;;;;;;34.05;12.65;;;-1.60;99.90;;;;;;4146301;28;20042;-75
2021/03/05 05:39:42;;;;;;;27.33;12.38;;;-1.70;99.90;;;;;;4145104;28;20449;-76
2021/03/05 05:41:43;;;;;;;36.97;12.02;;;-1.80;99.90;;;;;;4144497;28;20061;-76
2021/03/05 05:43:44;;;;;;;30.33;12.25;;;-1.80;99.90;;;;;;4147762;28;20127;-76
2021/03/05 05:45:45;;;;;;;35.25;12.57;;;-1.90;99.90;;;;;;4158810;28;20139;-76
2021/03/05 05:47:47;;;;;;;28.25;12.45;;;-2.00;99.90;;;;;;4146180;28;20037;-76
2021/03/05 05:49:48;;;;;;;25.63;10.32;;;-2.00;99.90;;;;;;4144425;28;20749;-76
2021/03/05 05:51:49;;;;;;;28.00;11.55;;;-2.00;99.90;;;;;;4144579;28;20069;-76
2021/03/05 05:53:52;;;;;;;33.17;11.85;;;-2.00;99.90;;;;;;4127196;28;20428;-76
2021/03/05 05:55:53;;;;;;;31.17;11.38;;;-2.00;99.90;;;;;;4159172;28;20427;-76
2021/03/05 05:57:55;;;;;;;24.80;11.48;;;-2.00;99.90;;;;;;4144304;28;20038;-76
2021/03/05 06:00:00;;;;;;;31.08;9.93;;;-2.00;99.90;;;;;;4143472;28;20124;-76
2021/03/05 06:02:01;;;;;;;26.85;10.77;;;-2.10;99.90;;;;;;4138417;28;20390;-76
2021/03/05 06:04:04;;;;;;;27.15;10.68;;;-2.20;99.90;;;;;;4157937;28;20037;-77
2021/03/05 06:06:05;;;;;;;30.85;11.93;;;-2.20;99.90;;;;;;4118292;28;20042;-77
2021/03/05 06:08:07;;;;;;;28.48;12.02;;;-2.20;99.90;;;;;;4125959;28;20445;-77
2021/03/05 06:10:10;;;;;;;25.58;12.13;;;-2.20;99.90;;;;;;4159307;28;20041;-77
2021/03/05 06:12:13;;;;;;;24.45;10.63;;;-2.30;99.90;;;;;;4144273;28;20077;-77
2021/03/05 06:14:14;;;;;;;23.48;10.85;;;-2.30;99.90;;;;;;4153228;28;20046;-76
2021/03/05 06:16:19;;;;;;;31.67;10.73;;;-2.30;99.90;;;;;;4145673;28;20189;-76
2021/03/05 06:18:30;;;;;;;23.70;10.48;;;-2.40;99.90;;;;;;4144652;28;20147;-77
2021/03/05 06:20:44;;;;;;;35.13;10.52;;;-2.50;99.90;;;;;;4143798;28;20083;-76
2021/03/05 06:23:04;;;;;;;28.83;11.35;;;-2.50;99.90;;;;;;4145526;28;20050;-77
2021/03/05 06:25:08;;;;;;;27.33;11.25;;;-2.50;99.90;;;;;;4143982;28;20076;-77
2021/03/05 06:27:09;;;;;;;23.98;10.77;;;-2.50;99.90;;;;;;4143818;28;20056;-76
2021/03/05 06:29:10;;;;;;;23.45;10.05;;;;;;;;;;4144350;28;20026;-76
2021/03/05 06:31:13;;;;;;;28.77;11.55;;;-2.40;99.90;;;;;;4144124;28;20064;-77
2021/03/05 06:33:31;;;;;;;24.80;11.38;;;-2.50;99.90;;;;;;4144282;28;20125;-77
2021/03/05 06:35:32;;;;;;;24.75;11.10;;;-2.50;99.90;;;;;;4143635;28;20116;-77
2021/03/05 06:37:47;;;;;;;30.88;11.88;;;-2.40;99.90;;;;;;4144177;28;20484;-77
2021/03/05 06:40:00;;;;;;;27.33;12.07;;;-2.30;99.90;;;;;;4144149;28;20038;-77
2021/03/05 06:42:12;;;;;;;29.83;12.13;;;-2.20;99.90;;;;;;4141772;28;20041;-77
2021/03/05 06:44:13;;;;;;;27.65;12.13;;;-2.00;99.90;;;;;;4144709;28;20133;-76
2021/03/05 06:46:43;;;;;;;30.73;12.15;;;-1.90;99.90;;;;;;4143890;28;20042;-76
2021/03/05 06:48:54;;;;;;;22.50;10.35;;;-1.80;99.90;;;;;;4139645;28;20424;-75
2021/03/05 06:51:07;;;;;;;29.48;10.68;;;-1.80;99.90;;;;;;4160138;28;20080;-76
2021/03/05 06:53:25;;;;;;;22.13;10.50;;;-1.60;99.90;;;;;;4142599;28;20092;-76
2021/03/05 06:55:27;;;;;;;32.55;11.27;;;-1.50;99.90;;;;;;4141489;28;20587;-77
2021/03/05 06:57:29;;;;;;;30.23;10.15;;;-1.40;99.90;;;;;;4143813;28;20528;-77
2021/03/05 06:59:47;;;;;;;28.23;10.95;;;-1.30;99.90;;;;;;4143614;28;20145;-76
2021/03/05 07:01:56;;;;;;;27.98;10.25;;;-1.30;99.90;;;;;;4146188;28;20096;-76
2021/03/05 07:04:10;;;;;;;24.80;9.45;;;-1.30;99.90;;;;;;4148053;28;20041;-77
2021/03/05 07:06:17;;;;;;;28.92;10.20;;;-1.20;99.90;;;;;;4142684;28;20045;-77
2021/03/05 07:08:38;;;;;;;23.15;9.48;;;-1.20;99.90;;;;;;4140295;28;20148;-77
2021/03/05 07:10:42;;;;;;;24.30;9.35;;;-1.20;99.90;;;;;;4137626;28;20120;-77
2021/03/05 07:13:02;;;;;;;24.95;11.80;;;-1.20;99.90;;;;;;4145784;28;20093;-75
2021/03/05 07:15:10;;;;;;;27.75;9.88;;;-1.10;99.90;;;;;;4129349;28;20034;-76
2021/03/05 07:17:12;;;;;;;23.40;10.40;;;-1.10;99.90;;;;;;4151791;28;20033;-77
2021/03/05 07:19:17;;;;;;;25.07;11.77;;;-1.00;99.90;;;;;;4123551;28;20387;-76
2021/03/05 07:21:20;;;;;;;25.98;10.50;;;-0.90;99.90;;;;;;4149514;28;20025;-76
2021/03/05 07:23:22;;;;;;;25.67;10.82;;;-0.90;99.90;;;;;;4104426;28;20073;-76
2021/03/05 07:25:24;;;;;;;26.27;10.60;;;-0.80;99.90;;;;;;4118467;28;20038;-76
2021/03/05 07:27:38;;;;;;;29.58;10.35;;;-0.70;99.90;;;;;;4129826;28;20289;-76
2021/03/05 07:29:43;;;;;;;31.90;13.38;;;-0.70;99.90;;;;;;4131464;28;20068;-77
2021/03/05 07:31:45;;;;;;;24.55;10.73;;;-0.70;99.90;;;;;;4139267;28;20078;-76
2021/03/05 07:33:53;;;;;;;27.92;10.48;;;-0.60;99.90;;;;;;4141552;28;20476;-76
2021/03/05 07:35:59;;;;;;;17.80;8.90;;;-0.60;99.90;;;;;;4158880;28;20068;-76
2021/03/05 07:38:05;;;;;;;31.33;10.40;;;-0.50;99.90;;;;;;4158565;28;20095;-75
2021/03/05 07:40:11;;;;;;;25.65;10.98;;;-0.40;99.90;;;;;;4123486;28;20038;-77
2021/03/05 07:42:13;;;;;;;23.13;11.35;;;-0.40;99.90;;;;;;4142342;28;20061;-77
2021/03/05 07:44:14;;;;;;;27.27;9.82;;;-0.30;99.90;;;;;;4139612;28;20389;-77
2021/03/05 07:46:15;;;;;;;22.08;10.57;;;-0.20;99.90;;;;;;4127112;28;20049;-76
2021/03/05 07:48:16;;;;;;;17.23;9.60;;;-0.20;99.90;;;;;;4142921;28;20061;-77
2021/03/05 07:50:23;;;;;;;18.30;9.57;;;-0.20;99.90;;;;;;4142956;28;20096;-77
2021/03/05 07:52:24;;;;;;;21.60;9.93;;;-0.10;99.90;;;;;;4140140;28;20044;-75
2021/03/05 07:54:40;;;;;;;18.27;9.52;;;0.00;99.90;;;;;;4136998;28;20026;-76
2021/03/05 07:56:49;;;;;;;30.42;10.15;;;0.10;99.90;;;;;;4143122;28;20124;-76
2021/03/05 07:58:49;;;;;;;19.65;10.02;;;0.10;99.90;;;;;;4120982;28;20085;-76
2021/03/05 08:00:52;;;;;;;21.63;10.70;;;0.10;99.90;;;;;;4143568;28;20045;-76
2021/03/05 08:02:56;;;;;;;26.08;10.05;;;0.20;99.90;;;;;;4141370;28;20074;-77
2021/03/05 08:05:07;;;;;;;25.30;9.23;;;0.30;99.90;;;;;;4136053;28;20613;-77
2021/03/05 08:07:10;;;;;;;20.92;10.23;;;0.40;99.90;;;;;;4126553;28;20031;-77
2021/03/05 08:09:15;;;;;;;25.90;9.20;;;0.40;99.90;;;;;;4148382;28;20037;-76
2021/03/05 08:11:26;;;;;;;25.13;7.72;;;0.40;99.90;;;;;;4158047;28;20030;-75
2021/03/05 08:13:48;;;;;;;19.58;8.20;;;0.50;99.90;;;;;;4118490;28;20133;-76
2021/03/05 08:15:49;;;;;;;20.65;7.88;;;0.60;99.90;;;;;;4156101;28;20103;-77
2021/03/05 08:17:52;;;;;;;24.08;8.30;;;0.60;99.90;;;;;;4160303;28;20029;-76
2021/03/05 08:19:53;;;;;;;23.77;8.05;;;0.70;99.90;;;;;;4132033;28;20124;-76
2021/03/05 08:21:58;;;;;;;18.67;8.57;;;0.80;99.90;;;;;;4144560;28;20088;-77
2021/03/05 08:24:26;;;;;;;15.98;7.32;;;0.80;99.90;;;;;;4144822;28;20073;-76
2021/03/05 08:27:07;;;;;;;21.33;6.88;;;0.80;99.90;;;;;;4143410;28;20451;-77
2021/03/05 08:29:08;;;;;;;18.05;6.80;;;0.90;99.90;;;;;;4156709;28;20508;-76
2021/03/05 08:31:37;;;;;;;14.82;6.05;;;1.10;99.90;;;;;;4159174;28;20036;-76
2021/03/05 08:33:38;;;;;;;17.25;6.25;;;1.10;99.90;;;;;;4124979;28;20146;-76
2021/03/05 08:35:39;;;;;;;11.18;5.20;;;1.20;99.90;;;;;;4159010;28;20065;-76
2021/03/05 08:38:01;;;;;;;8.68;4.90;;;1.30;99.90;;;;;;4132656;28;20042;-76
2021/03/05 08:40:16;;;;;;;13.77;5.03;;;1.80;99.90;;;;;;4142180;28;20041;-75
2021/03/05 08:42:45;;;;;;;13.48;5.20;;;1.40;99.90;;;;;;4143996;28;20034;-76
2021/03/05 08:45:19;;;;;;;9.75;4.80;;;1.10;99.90;;;;;;4127082;28;20042;-76
2021/03/05 08:47:20;;;;;;;10.18;4.28;;;1.60;99.90;;;;;;4143595;28;20065;-77
2021/03/05 08:49:24;;;;;;;15.43;4.45;;;1.70;99.90;;;;;;4142293;28;20046;-77
2021/03/05 08:51:25;;;;;;;8.10;4.07;;;1.80;99.90;;;;;;4140847;28;20034;-77
2021/03/05 08:53:27;;;;;;;9.38;4.13;;;1.90;99.90;;;;;;4159103;28;20037;-78
2021/03/05 08:55:36;;;;;;;9.30;4.15;;;1.90;99.90;;;;;;4156849;28;20091;-77
2021/03/05 08:57:47;;;;;;;9.65;3.30;;;2.00;99.90;;;;;;4125527;28;20082;-77
2021/03/05 08:59:51;;;;;;;7.88;3.97;;;2.10;99.90;;;;;;4161513;28;20080;-77
2021/03/05 09:01:51;;;;;;;8.45;3.40;;;2.10;99.90;;;;;;4158464;28;20463;-78
2021/03/05 09:03:52;;;;;;;10.70;4.22;;;2.20;99.90;;;;;;4142478;28;20489;-78
2021/03/05 09:05:53;;;;;;;9.90;3.78;;;2.30;99.90;;;;;;4145032;28;20059;-78
2021/03/05 09:07:55;;;;;;;5.85;3.38;;;2.40;99.90;;;;;;4147649;28;20115;-78
2021/03/05 09:09:56;;;;;;;7.55;3.05;;;2.40;99.90;;;;;;4161375;28;20040;-77
2021/03/05 09:12:15;;;;;;;7.53;3.00;;;2.80;99.90;;;;;;4160968;28;20058;-75
2021/03/05 09:14:26;;;;;;;9.52;4.18;;;2.70;99.90;;;;;;4142408;28;20029;-79
2021/03/05 09:16:27;;;;;;;9.73;3.30;;;2.70;99.90;;;;;;4144959;28;20034;-78
2021/03/05 09:18:31;;;;;;;14.65;3.92;;;2.80;99.90;;;;;;4146524;28;20189;-75
2021/03/05 09:21:00;;;;;;;8.40;2.95;;;3.00;99.90;;;;;;4161890;28;20068;-77
2021/03/05 09:23:41;;;;;;;7.07;2.97;;;3.00;99.90;;;;;;4140353;28;20037;-77
2021/03/05 09:25:56;;;;;;;15.20;4.65;;;3.10;99.90;;;;;;4135221;28;20061;-76
2021/03/05 09:27:58;;;;;;;8.88;2.95;;;3.20;99.90;;;;;;4139532;28;20056;-77
2021/03/05 09:30:00;;;;;;;5.95;2.95;;;3.30;99.90;;;;;;4158373;28;20096;-77
2021/03/05 09:32:00;;;;;;;10.55;3.17;;;3.30;99.90;;;;;;4145711;28;20030;-77
2021/03/05 09:34:07;;;;;;;10.43;3.00;;;3.40;99.90;;;;;;4161077;28;21121;-78
2021/03/05 09:36:10;;;;;;;8.15;3.05;;;3.50;99.90;;;;;;4145295;28;20057;-77
2021/03/05 09:38:15;;;;;;;5.22;3.20;;;3.60;99.90;;;;;;4145807;28;20030;-78
2021/03/05 09:40:17;;;;;;;10.40;3.42;;;3.60;99.90;;;;;;4145687;28;20068;-77
2021/03/05 09:42:38;;;;;;;6.15;3.05;;;;;;;;;;4145592;28;20084;-77
2021/03/05 09:44:47;;;;;;;4.88;2.72;;;3.80;99.90;;;;;;4146955;28;20045;-77
2021/03/05 09:46:56;;;;;;;4.63;2.80;;;3.90;99.90;;;;;;4145609;28;20179;-77
2021/03/05 09:48:57;;;;;;;5.00;2.83;;;4.00;99.90;;;;;;4140874;28;20037;-77
2021/03/05 09:51:04;;;;;;;7.20;3.17;;;4.10;99.90;;;;;;4137232;28;20045;-77
2021/03/05 09:53:33;;;;;;;4.05;3.13;;;4.20;99.90;;;;;;4145427;28;20210;-77
2021/03/05 09:55:34;;;;;;;7.32;3.28;;;4.80;99.90;;;;;;4123922;28;20030;-78
2021/03/05 09:57:38;;;;;;;2.83;2.63;;;5.20;99.90;;;;;;4142876;28;20041;-77
2021/03/05 09:59:49;;;;;;;4.72;2.50;;;5.50;99.90;;;;;;4145237;28;20088;-77
2021/03/05 10:01:50;;;;;;;2.90;2.60;;;5.90;99.90;;;;;;4161988;28;20038;-77
2021/03/05 10:04:02;;;;;;;5.72;2.50;;;6.00;99.90;;;;;;4146543;28;20053;-77
2021/03/05 10:06:03;;;;;;;8.88;2.33;;;6.20;99.90;;;;;;4163728;28;20090;-77
2021/03/05 10:08:27;;;;;;;7.88;2.90;;;6.40;99.90;;;;;;4145995;28;20037;-78
2021/03/05 10:10:28;;;;;;;7.38;2.67;;;6.60;99.90;;;;;;4160280;28;20038;-77
2021/03/05 10:12:31;;;;;;;3.38;2.47;;;6.50;99.90;;;;;;4142888;28;20378;-76
2021/03/05 10:14:35;;;;;;;2.72;2.13;;;6.90;99.90;;;;;;4149668;28;20037;-77
2021/03/05 10:16:40;;;;;;;4.03;2.15;;;7.30;97.20;;;;;;4138890;28;20038;-77
2021/03/05 10:18:43;;;;;;;7.72;2.33;;;7.60;94.00;;;;;;4128830;28;20104;-77
2021/03/05 10:20:53;;;;;;;6.63;2.70;;;7.50;82.40;;;;;;4144392;28;20053;-77
2021/03/05 10:22:54;;;;;;;3.45;2.30;;;7.40;86.90;;;;;;4142405;28;20112;-76
2021/03/05 10:24:55;;;;;;;5.90;2.10;;;7.60;73.70;;;;;;4161991;28;20091;-75
2021/03/05 10:29:15;;;;;;;3.60;2.28;;;7.60;69.40;;;;;;4160371;28;20153;-76
2021/03/05 10:31:16;;;;;;;3.15;2.72;;;8.10;70.10;;;;;;4144973;28;20041;-77
2021/03/05 10:33:41;;;;;;;4.13;2.20;;;8.40;69.10;;;;;;4145207;28;20077;-77
2021/03/05 10:35:42;;;;;;;2.83;1.98;;;8.60;65.40;;;;;;4140467;28;20518;-77
2021/03/05 10:37:44;;;;;;;2.05;1.80;;;8.10;62.90;;;;;;4131383;28;20058;-77
2021/03/05 10:39:47;;;;;;;2.25;1.98;;;8.20;66.50;;;;;;4139910;28;20125;-76
2021/03/05 10:42:10;;;;;;;;;;;8.40;66.20;;;;;;4145740;28;20041;-76
2021/03/05 10:44:10;;;;;;;2.55;1.80;;;8.50;66.20;;;;;;4159014;28;20010;-76
2021/03/05 10:46:13;;;;;;;3.33;2.38;;;9.00;60.80;;;;;;4161184;28;20076;-76
2021/03/05 10:48:14;;;;;;;3.00;2.00;;;8.80;62.40;;;;;;4161443;28;20423;-77